createdAt,value
2022-08-01T00:01:33.805Z,100569.80
2022-08-01T00:04:02.510Z,100570.20
2022-08-01T00:06:30.843Z,100573.40
2022-08-01T00:08:58.824Z,100573.20
2022-08-01T00:11:26.993Z,100568.20
2022-08-01T00:13:55.384Z,100570.60
2022-08-01T00:16:23.886Z,100572.20
2022-08-01T00:18:52.793Z,100570.40
2022-08-01T00:21:20.970Z,100568.40
2022-08-01T00:23:48.807Z,100569.00
2022-08-01T00:26:16.588Z,100565.60
2022-08-01T00:28:44.313Z,100562.40
2022-08-01T00:31:12.107Z,100561.80
2022-08-01T00:33:39.785Z,100559.20
2022-08-01T00:36:08.255Z,100555.20
2022-08-01T00:38:36.230Z,100554.80
2022-08-01T00:41:04.131Z,100548.60
2022-08-01T00:43:31.890Z,100547.00
2022-08-01T00:45:59.794Z,100544.40
2022-08-01T00:48:27.586Z,100542.20
2022-08-01T00:50:55.765Z,100540.20
2022-08-01T00:53:23.616Z,100543.80
2022-08-01T00:55:54.932Z,100545.60
2022-08-01T00:58:24.178Z,100541.20
2022-08-01T01:00:54.647Z,100538.00
2022-08-01T01:03:49.422Z,100537.40
2022-08-01T01:06:45.763Z,100532.80
2022-08-01T01:09:32.628Z,100533.80
2022-08-01T01:12:14.731Z,100539.60
2022-08-01T01:15:11.236Z,100538.20
2022-08-01T01:17:53.973Z,100535.60
2022-08-01T01:20:28.635Z,100532.40
2022-08-01T01:23:59.276Z,100537.00
2022-08-01T01:27:40.459Z,100540.00
2022-08-01T01:30:08.665Z,100530.40
2022-08-01T01:32:44.663Z,100533.40
2022-08-01T01:35:22.377Z,100535.20
2022-08-01T01:37:57.444Z,100529.60
2022-08-01T01:40:27.223Z,100533.20
2022-08-01T01:42:58.056Z,100530.40
2022-08-01T01:45:28.441Z,100530.00
2022-08-01T01:47:58.486Z,100528.60
2022-08-01T01:50:27.063Z,100529.00
2022-08-01T01:52:57.534Z,100528.40
2022-08-01T01:55:27.690Z,100525.80
2022-08-01T01:57:58.499Z,100524.80
2022-08-01T02:00:28.705Z,100524.20
2022-08-01T02:02:58.212Z,100520.60
2022-08-01T02:05:29.133Z,100521.20
2022-08-01T02:07:59.378Z,100522.40
2022-08-01T02:10:29.777Z,100518.00
2022-08-01T02:13:00.968Z,100516.40
2022-08-01T02:15:31.402Z,100522.20
2022-08-01T02:18:02.212Z,100523.20
2022-08-01T02:20:31.868Z,100523.20
2022-08-01T02:23:12.974Z,100524.60
2022-08-01T02:26:08.454Z,100523.80
2022-08-01T02:29:00.515Z,100523.20
2022-08-01T02:31:34.502Z,100522.60
2022-08-01T02:34:10.472Z,100524.40
2022-08-01T02:36:39.602Z,100523.00
2022-08-01T02:39:15.865Z,100521.40
2022-08-01T02:41:50.084Z,100520.80
2022-08-01T02:44:29.954Z,100524.00
2022-08-01T02:47:03.585Z,100523.20
2022-08-01T02:49:47.071Z,100527.20
2022-08-01T02:52:26.403Z,100522.00
2022-08-01T02:54:57.467Z,100518.20
2022-08-01T02:57:37.660Z,100516.00
2022-08-01T03:00:18.026Z,100513.80
2022-08-01T03:02:49.600Z,100515.20
2022-08-01T03:05:18.836Z,100516.80
2022-08-01T03:07:48.457Z,100514.40
2022-08-01T03:10:18.561Z,100515.20
2022-08-01T03:12:49.898Z,100514.20
2022-08-01T03:15:19.880Z,100515.80
2022-08-01T03:17:52.361Z,100517.60
2022-08-01T03:20:25.885Z,100515.00
2022-08-01T03:22:55.827Z,100512.00
2022-08-01T03:25:26.923Z,100507.20
2022-08-01T03:28:02.376Z,100509.40
2022-08-01T03:30:32.152Z,100507.00
2022-08-01T03:33:01.148Z,100505.40
2022-08-01T03:35:35.924Z,100502.00
2022-08-01T03:38:16.204Z,100507.00
2022-08-01T03:41:11.470Z,100508.60
2022-08-01T03:43:49.347Z,100511.60
2022-08-01T03:46:34.147Z,100511.60
2022-08-01T03:49:14.668Z,100515.00
2022-08-01T03:51:42.742Z,100514.40
2022-08-01T03:54:13.236Z,100515.80
2022-08-01T03:56:43.691Z,100514.60
2022-08-01T03:59:12.147Z,100508.80
2022-08-01T04:01:40.564Z,100510.40
2022-08-01T04:04:08.591Z,100506.00
2022-08-01T04:06:40.164Z,100506.20
2022-08-01T04:09:13.368Z,100496.60
2022-08-01T04:11:45.068Z,100498.40
2022-08-01T04:14:12.805Z,100493.20
2022-08-01T04:16:40.642Z,100491.20
2022-08-01T04:19:11.431Z,100490.80
2022-08-01T04:21:39.369Z,100491.00
2022-08-01T04:24:20.654Z,100489.40
2022-08-01T04:26:52.163Z,100491.60
2022-08-01T04:29:23.329Z,100492.60
2022-08-01T04:31:55.658Z,100494.60
2022-08-01T04:34:27.600Z,100490.00
2022-08-01T04:36:57.355Z,100498.40
2022-08-01T04:39:29.737Z,100497.00
2022-08-01T04:42:01.286Z,100499.80
2022-08-01T04:44:32.637Z,100501.00
2022-08-01T04:47:04.251Z,100509.80
2022-08-01T04:49:49.162Z,100507.00
2022-08-01T04:52:24.466Z,100507.60
2022-08-01T04:54:52.671Z,100506.60
2022-08-01T04:57:20.406Z,100509.00
2022-08-01T04:59:50.695Z,100511.80
2022-08-01T05:02:20.363Z,100514.00
2022-08-01T05:04:48.332Z,100509.00
2022-08-01T05:07:16.889Z,100510.00
2022-08-01T05:09:47.283Z,100510.60
2022-08-01T05:12:15.242Z,100516.60
2022-08-01T05:14:43.209Z,100521.80
2022-08-01T05:17:12.226Z,100523.20
2022-08-01T05:19:41.287Z,100520.20
2022-08-01T05:22:11.021Z,100515.60
2022-08-01T05:24:41.067Z,100520.40
2022-08-01T05:27:11.652Z,100520.80
2022-08-01T05:29:44.857Z,100519.40
2022-08-01T05:32:12.994Z,100526.20
2022-08-01T05:34:40.985Z,100524.80
2022-08-01T05:37:09.807Z,100522.00
2022-08-01T05:39:49.190Z,100522.00
2022-08-01T05:42:17.625Z,100517.20
2022-08-01T05:44:48.807Z,100515.80
2022-08-01T05:47:16.815Z,100507.00
2022-08-01T05:49:47.180Z,100507.00
2022-08-01T05:52:17.311Z,100506.20
2022-08-01T05:54:45.369Z,100506.20
2022-08-01T05:57:13.574Z,100507.20
2022-08-01T05:59:43.349Z,100505.40
2022-08-01T06:02:14.165Z,100502.00
2022-08-01T06:04:44.704Z,100500.00
2022-08-01T06:07:12.641Z,100502.00
2022-08-01T06:09:40.404Z,100502.20
2022-08-01T06:12:08.626Z,100504.40
2022-08-01T06:14:36.648Z,100505.80
2022-08-01T06:17:04.559Z,100505.00
2022-08-01T06:19:32.395Z,100504.80
2022-08-01T06:22:00.440Z,100499.00
2022-08-01T06:24:28.262Z,100498.40
2022-08-01T06:26:56.122Z,100502.60
2022-08-01T06:29:23.994Z,100501.80
2022-08-01T06:31:51.781Z,100497.40
2022-08-01T06:34:23.401Z,100497.40
2022-08-01T06:36:51.305Z,100494.80
2022-08-01T06:39:19.136Z,100490.80
2022-08-01T06:41:57.116Z,100491.00
2022-08-01T06:44:27.048Z,100492.80
2022-08-01T06:46:54.799Z,100485.40
2022-08-01T06:49:22.617Z,100486.80
2022-08-01T06:51:50.494Z,100483.00
2022-08-01T06:54:18.306Z,100488.80
2022-08-01T06:56:46.105Z,100487.80
2022-08-01T06:59:17.158Z,100485.60
2022-08-01T07:05:15.146Z,100493.60
2022-08-01T07:06:15.315Z,100492.40
2022-08-01T07:07:55.293Z,100487.40
2022-08-01T07:14:07.791Z,100490.20
2022-08-01T07:16:43.937Z,100482.20
2022-08-01T07:19:17.105Z,100487.20
2022-08-01T07:21:56.941Z,100487.80
2022-08-01T07:24:26.884Z,100485.60
2022-08-01T07:27:01.314Z,100485.60
2022-08-01T07:29:49.423Z,100480.40
2022-08-01T07:32:17.456Z,100485.20
2022-08-01T07:34:46.077Z,100484.20
2022-08-01T07:37:14.045Z,100480.80
2022-08-01T07:39:42.245Z,100480.60
2022-08-01T07:42:10.493Z,100481.80
2022-08-01T07:44:39.472Z,100482.80
2022-08-01T07:47:07.375Z,100480.60
2022-08-01T07:49:39.926Z,100476.80
2022-08-01T07:52:09.689Z,100476.60
2022-08-01T07:54:37.609Z,100475.00
2022-08-01T07:57:05.905Z,100474.40
2022-08-01T07:59:34.317Z,100473.20
2022-08-01T08:02:02.769Z,100481.00
2022-08-01T08:04:30.632Z,100482.60
2022-08-01T08:06:58.416Z,100479.40
2022-08-01T08:09:26.331Z,100480.60
2022-08-01T08:11:54.187Z,100481.00
2022-08-01T08:14:32.437Z,100475.60
2022-08-01T08:17:02.202Z,100475.40
2022-08-01T08:19:37.738Z,100477.40
2022-08-01T08:22:09.496Z,100480.20
2022-08-01T08:24:46.703Z,100481.40
2022-08-01T08:27:16.383Z,100482.60
2022-08-01T08:29:45.050Z,100484.20
2022-08-01T08:32:13.146Z,100479.60
2022-08-01T08:34:41.086Z,100482.80
2022-08-01T08:37:09.736Z,100480.60
2022-08-01T08:39:41.231Z,100489.00
2022-08-01T08:42:12.617Z,100491.80
2022-08-01T08:44:44.479Z,100491.40
2022-08-01T08:47:19.814Z,100493.00
2022-08-01T08:49:52.279Z,100492.60
2022-08-01T08:52:22.179Z,100490.00
2022-08-01T08:54:52.467Z,100488.60
2022-08-01T08:57:22.319Z,100488.00
2022-08-01T08:59:53.189Z,100485.60
2022-08-01T09:02:23.772Z,100486.20
2022-08-01T09:04:52.542Z,100494.00
2022-08-01T09:07:20.477Z,100490.40
2022-08-01T09:09:51.599Z,100493.20
2022-08-01T09:12:21.545Z,100490.20
2022-08-01T09:14:51.393Z,100490.40
2022-08-01T09:17:19.481Z,100494.60
2022-08-01T09:19:57.797Z,100495.80
2022-08-01T09:22:34.607Z,100496.60
2022-08-01T09:25:12.009Z,100497.00
2022-08-01T09:27:46.341Z,100504.60
2022-08-01T09:30:23.637Z,100509.60
2022-08-01T09:33:11.233Z,100509.20
2022-08-01T09:35:58.051Z,100508.40
2022-08-01T09:38:30.957Z,100506.00
2022-08-01T09:41:02.484Z,100505.20
2022-08-01T09:43:32.855Z,100504.00
2022-08-01T09:46:12.585Z,100502.40
2022-08-01T09:49:10.708Z,100502.00
2022-08-01T09:51:59.157Z,100503.00
2022-08-01T09:54:34.970Z,100501.40
2022-08-01T09:57:19.921Z,100504.80
2022-08-01T10:00:00.735Z,100508.60
2022-08-01T10:02:36.892Z,100508.60
2022-08-01T10:05:18.733Z,100515.00
2022-08-01T10:08:08.190Z,100517.00
2022-08-01T10:10:37.338Z,100518.40
2022-08-01T10:13:06.054Z,100522.40
2022-08-01T10:15:40.359Z,100515.00
2022-08-01T10:18:25.318Z,100512.60
2022-08-01T10:20:56.804Z,100511.20
2022-08-01T10:23:39.790Z,100514.00
2022-08-01T10:26:13.041Z,100516.20
2022-08-01T10:28:45.792Z,100511.40
2022-08-01T10:31:14.633Z,100521.00
2022-08-01T10:33:52.604Z,100526.80
2022-08-01T10:36:25.334Z,100525.20
2022-08-01T10:38:56.592Z,100522.80
2022-08-01T10:41:27.407Z,100526.00
2022-08-01T10:43:57.648Z,100527.40
2022-08-01T10:46:26.222Z,100532.40
2022-08-01T10:49:23.448Z,100530.60
2022-08-01T10:51:54.879Z,100528.60
2022-08-01T10:54:26.891Z,100534.00
2022-08-01T10:57:00.800Z,100528.20
2022-08-01T10:59:50.114Z,100522.60
2022-08-01T11:02:35.283Z,100527.20
2022-08-01T11:05:10.830Z,100524.80
2022-08-01T11:07:53.738Z,100527.40
2022-08-01T11:10:44.416Z,100525.80
2022-08-01T11:13:13.603Z,100524.80
2022-08-01T11:15:49.957Z,100523.40
2022-08-01T11:18:30.751Z,100527.60
2022-08-01T11:21:58.808Z,100529.00
2022-08-01T11:23:54.639Z,100524.80
2022-08-01T11:26:28.873Z,100525.60
2022-08-01T11:29:21.233Z,100521.00
2022-08-01T11:31:51.378Z,100526.40
2022-08-01T11:34:19.660Z,100527.60
2022-08-01T11:37:03.481Z,100530.00
2022-08-01T11:39:34.315Z,100534.00
2022-08-01T11:42:21.142Z,100541.40
2022-08-01T11:44:51.401Z,100539.40
2022-08-01T11:47:21.103Z,100534.80
2022-08-01T11:49:56.357Z,100540.80
2022-08-01T11:52:29.354Z,100538.60
2022-08-01T11:55:10.175Z,100541.80
2022-08-01T11:57:39.702Z,100542.60
2022-08-01T12:00:19.753Z,100539.00
2022-08-01T12:02:59.085Z,100542.00
2022-08-01T12:05:31.361Z,100537.20
2022-08-01T12:07:59.632Z,100540.20
2022-08-01T12:10:49.826Z,100540.40
2022-08-01T12:13:19.174Z,100537.60
2022-08-01T12:15:50.480Z,100540.00
2022-08-01T12:18:21.067Z,100545.40
2022-08-01T12:20:56.510Z,100544.00
2022-08-01T12:23:25.252Z,100542.20
2022-08-01T12:25:54.750Z,100544.40
2022-08-01T12:28:23.921Z,100548.40
2022-08-01T12:30:52.247Z,100546.80
2022-08-01T12:33:22.164Z,100544.00
2022-08-01T12:35:50.125Z,100537.20
2022-08-01T12:38:24.133Z,100543.00
2022-08-01T12:40:53.523Z,100542.60
2022-08-01T12:43:29.465Z,100550.60
2022-08-01T12:46:01.751Z,100549.40
2022-08-01T12:48:32.534Z,100551.60
2022-08-01T12:51:02.406Z,100551.40
2022-08-01T12:53:41.292Z,100551.20
2022-08-01T12:56:12.132Z,100555.60
2022-08-01T12:58:40.338Z,100553.60
2022-08-01T13:01:14.381Z,100555.80
2022-08-01T13:03:42.379Z,100559.20
2022-08-01T13:06:16.819Z,100568.80
2022-08-01T13:08:47.936Z,100569.60
2022-08-01T13:11:18.325Z,100566.40
2022-08-01T13:13:51.480Z,100561.80
2022-08-01T13:16:43.262Z,100565.40
2022-08-01T13:19:15.019Z,100565.40
2022-08-01T13:21:58.620Z,100566.80
2022-08-01T13:24:30.094Z,100573.00
2022-08-01T13:27:02.098Z,100573.00
2022-08-01T13:29:41.153Z,100571.40
2022-08-01T13:32:27.575Z,100570.60
2022-08-01T13:35:06.863Z,100571.20
2022-08-01T13:37:34.884Z,100571.60
2022-08-01T13:40:05.874Z,100569.60
2022-08-01T13:42:33.845Z,100573.60
2022-08-01T13:45:02.871Z,100580.20
2022-08-01T13:47:32.492Z,100584.40
2022-08-01T13:50:03.953Z,100592.40
2022-08-01T13:52:32.720Z,100593.40
2022-08-01T13:55:02.430Z,100603.20
2022-08-01T13:57:36.753Z,100602.40
2022-08-01T14:00:09.731Z,100609.40
2022-08-01T14:02:37.618Z,100611.40
2022-08-01T14:05:06.088Z,100611.20
2022-08-01T14:07:33.877Z,100611.00
2022-08-01T14:10:18.397Z,100615.80
2022-08-01T14:12:49.481Z,100613.00
2022-08-01T14:15:36.669Z,100615.60
2022-08-01T14:18:09.947Z,100618.60
2022-08-01T14:20:40.258Z,100614.80
2022-08-01T14:23:09.579Z,100622.40
2022-08-01T14:26:02.868Z,100623.40
2022-08-01T14:28:29.326Z,100620.80
2022-08-01T14:30:59.384Z,100620.00
2022-08-01T14:33:28.047Z,100618.60
2022-08-01T14:36:06.208Z,100624.40
2022-08-01T14:38:46.498Z,100624.80
2022-08-01T14:41:17.519Z,100633.20
2022-08-01T14:43:45.814Z,100630.60
2022-08-01T14:46:14.357Z,100630.80
2022-08-01T14:48:42.641Z,100633.40
2022-08-01T14:51:10.823Z,100634.60
2022-08-01T14:53:38.789Z,100640.00
2022-08-01T14:56:07.813Z,100635.80
2022-08-01T14:58:35.991Z,100638.00
2022-08-01T15:01:06.055Z,100641.80
2022-08-01T15:03:33.938Z,100643.80
2022-08-01T15:06:01.673Z,100643.60
2022-08-01T15:08:31.138Z,100642.00
2022-08-01T15:10:59.198Z,100649.60
2022-08-01T15:13:26.925Z,100650.40
2022-08-01T15:15:54.822Z,100647.20
2022-08-01T15:18:29.731Z,100651.20
2022-08-01T15:20:58.513Z,100648.00
2022-08-01T15:23:26.316Z,100648.60
2022-08-01T15:25:54.155Z,100657.40
2022-08-01T15:28:22.085Z,100654.20
2022-08-01T15:30:50.286Z,100655.00
2022-08-01T15:33:18.489Z,100650.80
2022-08-01T15:35:46.242Z,100642.20
2022-08-01T15:38:14.060Z,100648.00
2022-08-01T15:40:41.825Z,100642.20
2022-08-01T15:43:09.607Z,100649.60
2022-08-01T15:45:48.154Z,100649.20
2022-08-01T15:48:18.199Z,100646.20
2022-08-01T15:50:46.277Z,100641.60
2022-08-01T15:53:14.061Z,100650.00
2022-08-01T15:55:42.004Z,100648.60
2022-08-01T15:58:16.848Z,100650.20
2022-08-01T16:00:44.601Z,100648.20
2022-08-01T16:03:12.449Z,100648.20
2022-08-01T16:05:43.961Z,100649.80
2022-08-01T16:08:13.964Z,100651.20
2022-08-01T16:10:42.781Z,100648.00
2022-08-01T16:13:11.912Z,100648.40
2022-08-01T16:15:40.939Z,100652.20
2022-08-01T16:18:16.233Z,100655.00
2022-08-01T16:20:45.806Z,100650.20
2022-08-01T16:23:15.763Z,100653.00
2022-08-01T16:25:44.976Z,100653.80
2022-08-01T16:28:14.180Z,100654.40
2022-08-01T16:30:48.925Z,100651.00
2022-08-01T16:33:41.319Z,100652.40
2022-08-01T16:36:19.372Z,100649.80
2022-08-01T16:38:47.308Z,100655.40
2022-08-01T16:41:20.171Z,100651.40
2022-08-01T16:43:54.278Z,100662.40
2022-08-01T16:46:25.580Z,100665.80
2022-08-01T16:48:54.351Z,100662.00
2022-08-01T16:51:22.454Z,100661.80
2022-08-01T16:53:50.226Z,100656.40
2022-08-01T16:56:18.219Z,100664.00
2022-08-01T16:58:46.175Z,100668.80
2022-08-01T17:01:59.906Z,100665.00
2022-08-01T17:04:03.191Z,100668.80
2022-08-01T17:06:31.038Z,100669.00
2022-08-01T17:08:59.309Z,100668.20
2022-08-01T17:11:27.383Z,100668.60
2022-08-01T17:14:11.707Z,100663.20
2022-08-01T17:16:46.739Z,100669.60
2022-08-01T17:19:14.999Z,100672.20
2022-08-01T17:21:43.043Z,100673.60
2022-08-01T17:24:11.614Z,100670.80
2022-08-01T17:26:43.685Z,100676.60
2022-08-01T17:29:11.485Z,100672.80
2022-08-01T17:31:39.220Z,100676.20
2022-08-01T17:34:07.105Z,100676.80
2022-08-01T17:36:35.012Z,100685.60
2022-08-01T17:39:05.251Z,100683.20
2022-08-01T17:41:33.145Z,100685.00
2022-08-01T17:44:01.898Z,100685.00
2022-08-01T17:46:30.588Z,100692.20
2022-08-01T17:49:00.109Z,100695.80
2022-08-01T17:51:29.741Z,100699.00
2022-08-01T17:53:58.075Z,100702.60
2022-08-01T17:56:27.555Z,100708.60
2022-08-01T17:58:56.479Z,100709.80
2022-08-01T18:01:27.715Z,100712.40
2022-08-01T18:03:58.571Z,100720.20
2022-08-01T18:06:27.485Z,100716.80
2022-08-01T18:08:56.598Z,100723.20
2022-08-01T18:11:38.430Z,100725.60
2022-08-01T18:14:06.977Z,100727.00
2022-08-01T18:16:35.085Z,100730.40
2022-08-01T18:19:05.503Z,100736.80
2022-08-01T18:21:37.581Z,100737.80
2022-08-01T18:24:07.816Z,100734.20
2022-08-01T18:26:35.998Z,100742.00
2022-08-01T18:29:03.969Z,100743.20
2022-08-01T18:31:31.861Z,100748.80
2022-08-01T18:33:59.889Z,100746.20
2022-08-01T18:36:33.269Z,100748.60
2022-08-01T18:39:10.758Z,100751.60
2022-08-01T18:41:52.834Z,100757.60
2022-08-01T18:44:30.420Z,100764.40
2022-08-01T18:46:58.821Z,100756.40
2022-08-01T18:49:26.955Z,100760.00
2022-08-01T18:51:54.910Z,100769.40
2022-08-01T18:54:24.425Z,100770.00
2022-08-01T18:56:52.209Z,100773.60
2022-08-01T18:59:20.580Z,100774.60
2022-08-01T19:01:48.567Z,100780.80
2022-08-01T19:04:16.766Z,100783.80
2022-08-01T19:06:47.558Z,100786.20
2022-08-01T19:09:20.809Z,100787.00
2022-08-01T19:11:48.806Z,100789.20
2022-08-01T19:14:17.733Z,100797.00
2022-08-01T19:16:45.702Z,100801.20
2022-08-01T19:19:14.091Z,100796.00
2022-08-01T19:21:44.944Z,100799.60
2022-08-01T19:24:23.575Z,100801.00
2022-08-01T19:27:08.683Z,100801.40
2022-08-01T19:29:43.255Z,100804.00
2022-08-01T19:32:11.865Z,100805.60
2022-08-01T19:34:50.812Z,100807.40
2022-08-01T19:37:24.098Z,100807.40
2022-08-01T19:39:57.484Z,100806.00
2022-08-01T19:42:27.005Z,100812.60
2022-08-01T19:44:55.383Z,100817.20
2022-08-01T19:47:23.315Z,100820.20
2022-08-01T19:49:51.256Z,100821.40
2022-08-01T19:52:26.176Z,100824.00
2022-08-01T19:54:58.136Z,100823.00
2022-08-01T19:57:28.696Z,100830.60
2022-08-01T20:00:23.822Z,100828.20
2022-08-01T20:02:58.859Z,100824.40
2022-08-01T20:05:26.747Z,100822.00
2022-08-01T20:07:54.901Z,100825.60
2022-08-01T20:10:23.154Z,100829.60
2022-08-01T20:12:52.763Z,100822.00
2022-08-01T20:15:22.727Z,100824.40
2022-08-01T20:17:50.719Z,100828.40
2022-08-01T20:20:18.833Z,100835.80
2022-08-01T20:22:49.616Z,100834.60
2022-08-01T20:25:20.711Z,100833.60
2022-08-01T20:27:48.732Z,100838.60
2022-08-01T20:30:16.636Z,100831.60
2022-08-01T20:32:47.961Z,100834.60
2022-08-01T20:35:16.730Z,100839.20
2022-08-01T20:38:07.311Z,100835.40
2022-08-01T20:40:36.252Z,100832.00
2022-08-01T20:43:04.273Z,100827.00
2022-08-01T20:45:33.157Z,100827.60
2022-08-01T20:48:02.121Z,100828.00
2022-08-01T20:50:53.693Z,100833.40
2022-08-01T20:53:24.516Z,100835.00
2022-08-01T20:56:26.519Z,100830.80
2022-08-01T20:59:55.458Z,100832.00
2022-08-01T21:02:30.592Z,100827.20
2022-08-01T21:05:07.748Z,100830.80
2022-08-01T21:07:53.853Z,100826.40
2022-08-01T21:10:27.144Z,100831.20
2022-08-01T21:13:07.766Z,100833.20
2022-08-01T21:16:07.325Z,100841.00
2022-08-01T21:19:16.852Z,100841.60
2022-08-01T21:21:59.380Z,100837.40
2022-08-01T21:24:45.482Z,100840.00
2022-08-01T21:27:33.668Z,100844.00
2022-08-01T21:30:07.442Z,100847.60
2022-08-01T21:32:37.717Z,100856.80
2022-08-01T21:35:16.317Z,100857.60
2022-08-01T21:37:52.054Z,100848.00
2022-08-01T21:40:24.344Z,100854.20
2022-08-01T21:42:54.396Z,100851.00
2022-08-01T21:45:25.846Z,100860.80
2022-08-01T21:47:55.386Z,100864.60
2022-08-01T21:50:24.807Z,100867.40
2022-08-01T21:53:57.698Z,100864.40
2022-08-01T21:56:58.768Z,100863.80
2022-08-01T22:00:02.268Z,100873.40
2022-08-01T22:02:39.256Z,100870.40
2022-08-01T22:05:11.114Z,100867.20
2022-08-01T22:07:53.394Z,100869.20
2022-08-01T22:10:21.418Z,100867.80
2022-08-01T22:12:49.487Z,100865.40
2022-08-01T22:15:23.979Z,100866.20
2022-08-01T22:17:52.890Z,100868.40
2022-08-01T22:20:23.776Z,100872.00
2022-08-01T22:22:53.598Z,100873.80
2022-08-01T22:25:23.556Z,100879.60
2022-08-01T22:28:06.570Z,100883.20
2022-08-01T22:30:42.158Z,100882.80
2022-08-01T22:33:16.268Z,100882.60
2022-08-01T22:35:48.907Z,100885.40
2022-08-01T22:38:19.116Z,100880.00
2022-08-01T22:41:01.556Z,100882.40
2022-08-01T22:43:47.722Z,100878.20
2022-08-01T22:46:37.725Z,100878.40
2022-08-01T22:49:21.151Z,100887.80
2022-08-01T22:51:54.887Z,100886.80
2022-08-01T22:54:38.011Z,100893.20
2022-08-01T22:57:14.121Z,100895.80
2022-08-01T23:00:05.948Z,100892.20
2022-08-01T23:02:41.011Z,100895.00
2022-08-01T23:05:19.199Z,100891.20
2022-08-01T23:07:53.337Z,100890.20
2022-08-01T23:10:24.965Z,100893.20
2022-08-01T23:12:54.961Z,100892.80
2022-08-01T23:15:24.631Z,100898.60
2022-08-01T23:17:53.137Z,100898.80
2022-08-01T23:20:22.209Z,100895.80
2022-08-01T23:22:52.176Z,100895.40
2022-08-01T23:25:19.980Z,100893.60
2022-08-01T23:28:03.286Z,100895.20
2022-08-01T23:30:36.012Z,100897.80
2022-08-01T23:33:04.141Z,100891.00
2022-08-01T23:35:35.431Z,100888.20
2022-08-01T23:38:08.420Z,100883.00
2022-08-01T23:40:37.594Z,100884.80
2022-08-01T23:43:16.921Z,100882.40
2022-08-01T23:46:04.721Z,100881.20
2022-08-01T23:48:34.900Z,100881.20
2022-08-01T23:51:07.689Z,100880.60
2022-08-01T23:53:38.644Z,100882.40
2022-08-01T23:56:06.872Z,100878.00
2022-08-01T23:58:34.788Z,100875.20
